sensor_id;sensor_type;location;lat;lon;timestamp;temperature;humidity
18207;DHT22;9229;52.354;20.886;2022-08-23T00:02:37;20.00;99.90
18207;DHT22;9229;52.354;20.886;2022-08-23T00:07:41;19.90;99.90
18207;DHT22;9229;52.354;20.886;2022-08-23T00:12:45;19.90;99.90
18207;DHT22;9229;52.354;20.886;2022-08-23T00:17:48;19.80;99.90
18207;DHT22;9229;52.354;20.886;2022-08-23T00:22:50;19.80;99.90
18207;DHT22;9229;52.354;20.886;2022-08-23T00:27:52;19.80;99.90
18207;DHT22;9229;52.354;20.886;2022-08-23T00:32:56;19.70;99.90
18207;DHT22;9229;52.354;20.886;2022-08-23T00:37:58;19.70;99.90
18207;DHT22;9229;52.354;20.886;2022-08-23T00:43:04;19.70;99.90
18207;DHT22;9229;52.354;20.886;2022-08-23T00:48:26;19.60;99.90
18207;DHT22;9229;52.354;20.886;2022-08-23T00:53:32;19.60;99.90
18207;DHT22;9229;52.354;20.886;2022-08-23T00:58:35;19.50;99.90
18207;DHT22;9229;52.354;20.886;2022-08-23T01:03:40;19.60;99.90
18207;DHT22;9229;52.354;20.886;2022-08-23T01:08:47;19.60;99.90
18207;DHT22;9229;52.354;20.886;2022-08-23T01:13:53;19.60;99.90
18207;DHT22;9229;52.354;20.886;2022-08-23T01:18:59;19.60;99.90
18207;DHT22;9229;52.354;20.886;2022-08-23T01:24:03;19.60;99.90
18207;DHT22;9229;52.354;20.886;2022-08-23T01:29:06;19.60;99.90
18207;DHT22;9229;52.354;20.886;2022-08-23T01:34:12;19.70;99.90
18207;DHT22;9229;52.354;20.886;2022-08-23T01:39:17;19.70;99.90
18207;DHT22;9229;52.354;20.886;2022-08-23T01:44:19;19.80;99.90
18207;DHT22;9229;52.354;20.886;2022-08-23T01:49:21;19.80;99.90
18207;DHT22;9229;52.354;20.886;2022-08-23T01:54:24;19.80;99.90
18207;DHT22;9229;52.354;20.886;2022-08-23T01:59:26;19.90;99.90
18207;DHT22;9229;52.354;20.886;2022-08-23T02:04:28;19.90;99.90
18207;DHT22;9229;52.354;20.886;2022-08-23T02:09:32;20.00;99.90
18207;DHT22;9229;52.354;20.886;2022-08-23T02:14:36;20.00;99.90
18207;DHT22;9229;52.354;20.886;2022-08-23T02:19:44;20.10;99.90
18207;DHT22;9229;52.354;20.886;2022-08-23T02:24:47;20.10;99.90
18207;DHT22;9229;52.354;20.886;2022-08-23T02:29:50;20.10;99.90
18207;DHT22;9229;52.354;20.886;2022-08-23T02:34:52;20.10;99.90
18207;DHT22;9229;52.354;20.886;2022-08-23T02:39:56;20.00;99.90
18207;DHT22;9229;52.354;20.886;2022-08-23T02:44:58;20.10;99.90
18207;DHT22;9229;52.354;20.886;2022-08-23T02:49:59;20.10;99.90
18207;DHT22;9229;52.354;20.886;2022-08-23T02:55:03;20.10;99.90
18207;DHT22;9229;52.354;20.886;2022-08-23T03:00:07;20.00;99.90
18207;DHT22;9229;52.354;20.886;2022-08-23T03:05:10;20.00;99.90
18207;DHT22;9229;52.354;20.886;2022-08-23T03:10:14;20.10;99.90
18207;DHT22;9229;52.354;20.886;2022-08-23T03:15:22;20.10;99.90
18207;DHT22;9229;52.354;20.886;2022-08-23T03:20:24;20.10;99.90
18207;DHT22;9229;52.354;20.886;2022-08-23T03:25:27;20.10;99.90
18207;DHT22;9229;52.354;20.886;2022-08-23T03:30:36;20.10;99.90
18207;DHT22;9229;52.354;20.886;2022-08-23T03:35:40;20.10;99.90
18207;DHT22;9229;52.354;20.886;2022-08-23T03:40:46;20.10;99.90
18207;DHT22;9229;52.354;20.886;2022-08-23T03:45:51;20.10;99.90
18207;DHT22;9229;52.354;20.886;2022-08-23T03:50:54;20.00;99.90
18207;DHT22;9229;52.354;20.886;2022-08-23T03:55:58;20.00;99.90
18207;DHT22;9229;52.354;20.886;2022-08-23T04:01:00;20.00;99.90
18207;DHT22;9229;52.354;20.886;2022-08-23T04:06:02;20.00;99.90
18207;DHT22;9229;52.354;20.886;2022-08-23T04:11:06;20.00;99.90
18207;DHT22;9229;52.354;20.886;2022-08-23T04:16:11;20.00;99.90
18207;DHT22;9229;52.354;20.886;2022-08-23T04:21:15;20.00;99.90
18207;DHT22;9229;52.354;20.886;2022-08-23T04:26:19;20.00;99.90
18207;DHT22;9229;52.354;20.886;2022-08-23T04:31:22;20.00;99.90
18207;DHT22;9229;52.354;20.886;2022-08-23T04:36:28;20.00;99.90
18207;DHT22;9229;52.354;20.886;2022-08-23T04:41:33;20.00;99.90
18207;DHT22;9229;52.354;20.886;2022-08-23T04:46:52;20.00;99.90
18207;DHT22;9229;52.354;20.886;2022-08-23T04:51:54;20.10;99.90
18207;DHT22;9229;52.354;20.886;2022-08-23T04:56:58;20.10;99.90
18207;DHT22;9229;52.354;20.886;2022-08-23T05:02:00;20.30;99.90
18207;DHT22;9229;52.354;20.886;2022-08-23T05:07:02;20.50;99.90
18207;DHT22;9229;52.354;20.886;2022-08-23T05:12:06;20.70;99.90
18207;DHT22;9229;52.354;20.886;2022-08-23T05:17:08;20.80;99.90
18207;DHT22;9229;52.354;20.886;2022-08-23T05:22:11;21.00;99.90
18207;DHT22;9229;52.354;20.886;2022-08-23T05:27:56;21.10;99.90
18207;DHT22;9229;52.354;20.886;2022-08-23T05:32:58;21.20;99.90
18207;DHT22;9229;52.354;20.886;2022-08-23T05:38:02;21.30;99.90
18207;DHT22;9229;52.354;20.886;2022-08-23T05:43:05;21.40;99.90
18207;DHT22;9229;52.354;20.886;2022-08-23T05:48:08;21.50;99.90
18207;DHT22;9229;52.354;20.886;2022-08-23T05:53:17;21.70;99.90
18207;DHT22;9229;52.354;20.886;2022-08-23T05:58:22;21.80;99.90
18207;DHT22;9229;52.354;20.886;2022-08-23T06:03:24;22.00;99.90
18207;DHT22;9229;52.354;20.886;2022-08-23T06:08:26;22.20;99.90
18207;DHT22;9229;52.354;20.886;2022-08-23T06:13:30;22.30;99.90
18207;DHT22;9229;52.354;20.886;2022-08-23T06:18:32;22.60;99.90
18207;DHT22;9229;52.354;20.886;2022-08-23T06:23:48;22.80;99.90
18207;DHT22;9229;52.354;20.886;2022-08-23T06:28:54;23.20;99.90
18207;DHT22;9229;52.354;20.886;2022-08-23T06:33:57;23.50;99.90
18207;DHT22;9229;52.354;20.886;2022-08-23T06:39:23;24.00;99.90
18207;DHT22;9229;52.354;20.886;2022-08-23T06:44:46;24.50;99.90
18207;DHT22;9229;52.354;20.886;2022-08-23T06:50:20;25.30;99.90
18207;DHT22;9229;52.354;20.886;2022-08-23T06:55:41;26.10;99.90
18207;DHT22;9229;52.354;20.886;2022-08-23T07:00:54;26.90;99.90
18207;DHT22;9229;52.354;20.886;2022-08-23T07:06:02;27.60;99.90
18207;DHT22;9229;52.354;20.886;2022-08-23T07:11:08;28.20;99.90
18207;DHT22;9229;52.354;20.886;2022-08-23T07:16:12;28.90;99.90
18207;DHT22;9229;52.354;20.886;2022-08-23T07:21:15;29.50;99.90
18207;DHT22;9229;52.354;20.886;2022-08-23T07:26:19;29.90;99.90
18207;DHT22;9229;52.354;20.886;2022-08-23T07:31:27;30.30;99.90
18207;DHT22;9229;52.354;20.886;2022-08-23T07:36:32;30.20;99.90
18207;DHT22;9229;52.354;20.886;2022-08-23T07:41:35;30.00;99.90
18207;DHT22;9229;52.354;20.886;2022-08-23T07:46:42;30.00;99.90
18207;DHT22;9229;52.354;20.886;2022-08-23T07:51:46;30.40;99.90
18207;DHT22;9229;52.354;20.886;2022-08-23T07:56:48;30.40;99.90
18207;DHT22;9229;52.354;20.886;2022-08-23T08:02:26;30.40;99.90
18207;DHT22;9229;52.354;20.886;2022-08-23T08:07:28;30.20;99.90
18207;DHT22;9229;52.354;20.886;2022-08-23T08:12:33;30.00;99.90
18207;DHT22;9229;52.354;20.886;2022-08-23T08:17:47;29.80;99.90
18207;DHT22;9229;52.354;20.886;2022-08-23T08:22:49;30.30;99.90
18207;DHT22;9229;52.354;20.886;2022-08-23T08:28:11;31.30;99.90
18207;DHT22;9229;52.354;20.886;2022-08-23T08:33:18;31.60;99.90
18207;DHT22;9229;52.354;20.886;2022-08-23T08:38:22;31.70;99.90
18207;DHT22;9229;52.354;20.886;2022-08-23T08:43:32;32.30;99.90
18207;DHT22;9229;52.354;20.886;2022-08-23T08:48:42;33.10;99.00
18207;DHT22;9229;52.354;20.886;2022-08-23T08:53:47;34.20;97.40
18207;DHT22;9229;52.354;20.886;2022-08-23T08:59:17;34.90;94.30
18207;DHT22;9229;52.354;20.886;2022-08-23T09:04:22;33.70;94.80
18207;DHT22;9229;52.354;20.886;2022-08-23T09:09:36;32.90;96.00
18207;DHT22;9229;52.354;20.886;2022-08-23T09:14:52;32.70;96.40
18207;DHT22;9229;52.354;20.886;2022-08-23T09:20:03;32.60;96.50
18207;DHT22;9229;52.354;20.886;2022-08-23T09:25:07;32.90;96.50
18207;DHT22;9229;52.354;20.886;2022-08-23T09:30:17;33.20;95.60
18207;DHT22;9229;52.354;20.886;2022-08-23T09:35:23;33.80;95.10
18207;DHT22;9229;52.354;20.886;2022-08-23T09:40:44;34.80;93.20
18207;DHT22;9229;52.354;20.886;2022-08-23T09:45:58;35.50;91.30
18207;DHT22;9229;52.354;20.886;2022-08-23T09:51:15;34.90;91.20
18207;DHT22;9229;52.354;20.886;2022-08-23T09:56:23;34.60;91.80
18207;DHT22;9229;52.354;20.886;2022-08-23T10:01:29;34.80;91.60
18207;DHT22;9229;52.354;20.886;2022-08-23T10:06:45;35.30;91.10
18207;DHT22;9229;52.354;20.886;2022-08-23T10:11:48;35.20;90.60
18207;DHT22;9229;52.354;20.886;2022-08-23T10:17:01;35.30;90.40
18207;DHT22;9229;52.354;20.886;2022-08-23T10:22:14;36.30;88.10
18207;DHT22;9229;52.354;20.886;2022-08-23T10:27:42;37.50;83.20
18207;DHT22;9229;52.354;20.886;2022-08-23T10:33:10;38.20;80.10
18207;DHT22;9229;52.354;20.886;2022-08-23T10:38:33;38.90;76.90
18207;DHT22;9229;52.354;20.886;2022-08-23T10:43:44;39.40;72.50
18207;DHT22;9229;52.354;20.886;2022-08-23T10:48:54;38.80;71.40
18207;DHT22;9229;52.354;20.886;2022-08-23T10:54:05;38.20;71.60
18207;DHT22;9229;52.354;20.886;2022-08-23T10:59:10;37.50;72.10
18207;DHT22;9229;52.354;20.886;2022-08-23T11:04:20;36.90;74.90
18207;DHT22;9229;52.354;20.886;2022-08-23T11:09:54;36.30;73.10
18207;DHT22;9229;52.354;20.886;2022-08-23T11:15:10;36.90;68.30
18207;DHT22;9229;52.354;20.886;2022-08-23T11:26:02;38.60;65.40
18207;DHT22;9229;52.354;20.886;2022-08-23T11:31:19;39.50;63.50
18207;DHT22;9229;52.354;20.886;2022-08-23T11:36:24;40.00;59.50
18207;DHT22;9229;52.354;20.886;2022-08-23T11:41:30;40.60;57.20
18207;DHT22;9229;52.354;20.886;2022-08-23T11:46:33;40.60;56.60
18207;DHT22;9229;52.354;20.886;2022-08-23T11:51:47;40.00;55.00
18207;DHT22;9229;52.354;20.886;2022-08-23T11:57:10;39.10;56.30
18207;DHT22;9229;52.354;20.886;2022-08-23T12:07:52;38.90;55.30
18207;DHT22;9229;52.354;20.886;2022-08-23T12:13:28;38.10;55.40
18207;DHT22;9229;52.354;20.886;2022-08-23T12:18:31;38.00;55.80
18207;DHT22;9229;52.354;20.886;2022-08-23T12:23:44;37.10;54.70
18207;DHT22;9229;52.354;20.886;2022-08-23T12:28:51;37.10;55.50
18207;DHT22;9229;52.354;20.886;2022-08-23T12:34:01;37.00;57.00
18207;DHT22;9229;52.354;20.886;2022-08-23T12:39:06;37.20;56.70
18207;DHT22;9229;52.354;20.886;2022-08-23T12:44:10;38.10;55.60
18207;DHT22;9229;52.354;20.886;2022-08-23T12:49:27;38.70;54.20
18207;DHT22;9229;52.354;20.886;2022-08-23T12:54:35;39.20;52.80
18207;DHT22;9229;52.354;20.886;2022-08-23T12:59:47;39.60;51.70
18207;DHT22;9229;52.354;20.886;2022-08-23T13:04:51;40.10;51.70
18207;DHT22;9229;52.354;20.886;2022-08-23T13:09:54;40.00;51.00
18207;DHT22;9229;52.354;20.886;2022-08-23T13:14:58;39.40;51.90
18207;DHT22;9229;52.354;20.886;2022-08-23T13:20:19;37.60;52.70
18207;DHT22;9229;52.354;20.886;2022-08-23T13:25:24;35.60;56.10
18207;DHT22;9229;52.354;20.886;2022-08-23T13:30:29;35.10;57.70
18207;DHT22;9229;52.354;20.886;2022-08-23T13:35:33;34.80;58.40
18207;DHT22;9229;52.354;20.886;2022-08-23T13:40:41;34.50;59.00
18207;DHT22;9229;52.354;20.886;2022-08-23T13:45:48;34.60;58.30
18207;DHT22;9229;52.354;20.886;2022-08-23T13:50:51;34.80;57.60
18207;DHT22;9229;52.354;20.886;2022-08-23T13:55:55;34.50;57.30
18207;DHT22;9229;52.354;20.886;2022-08-23T14:01:02;33.70;58.80
18207;DHT22;9229;52.354;20.886;2022-08-23T14:06:05;33.00;59.80
18207;DHT22;9229;52.354;20.886;2022-08-23T14:11:07;32.50;61.40
18207;DHT22;9229;52.354;20.886;2022-08-23T14:16:14;32.10;63.50
18207;DHT22;9229;52.354;20.886;2022-08-23T14:21:17;31.80;64.30
18207;DHT22;9229;52.354;20.886;2022-08-23T14:26:19;31.50;65.10
18207;DHT22;9229;52.354;20.886;2022-08-23T14:31:24;31.40;65.80
18207;DHT22;9229;52.354;20.886;2022-08-23T14:36:26;31.20;65.20
18207;DHT22;9229;52.354;20.886;2022-08-23T14:41:28;31.10;66.30
18207;DHT22;9229;52.354;20.886;2022-08-23T14:46:32;31.10;67.40
18207;DHT22;9229;52.354;20.886;2022-08-23T14:51:35;31.10;68.40
18207;DHT22;9229;52.354;20.886;2022-08-23T14:56:38;31.20;69.20
18207;DHT22;9229;52.354;20.886;2022-08-23T15:01:42;31.10;69.10
18207;DHT22;9229;52.354;20.886;2022-08-23T15:06:45;30.90;69.80
18207;DHT22;9229;52.354;20.886;2022-08-23T15:11:47;30.80;71.30
18207;DHT22;9229;52.354;20.886;2022-08-23T15:16:51;30.40;75.60
18207;DHT22;9229;52.354;20.886;2022-08-23T15:21:52;29.60;80.30
18207;DHT22;9229;52.354;20.886;2022-08-23T15:26:54;28.80;83.80
18207;DHT22;9229;52.354;20.886;2022-08-23T15:32:00;28.40;85.30
18207;DHT22;9229;52.354;20.886;2022-08-23T15:37:02;28.00;87.10
18207;DHT22;9229;52.354;20.886;2022-08-23T15:42:04;27.60;89.20
18207;DHT22;9229;52.354;20.886;2022-08-23T15:47:17;27.40;90.30
18207;DHT22;9229;52.354;20.886;2022-08-23T15:52:20;27.20;91.00
18207;DHT22;9229;52.354;20.886;2022-08-23T15:57:25;27.10;91.40
18207;DHT22;9229;52.354;20.886;2022-08-23T16:02:28;27.00;92.10
18207;DHT22;9229;52.354;20.886;2022-08-23T16:07:31;26.80;92.70
18207;DHT22;9229;52.354;20.886;2022-08-23T16:12:33;26.50;93.50
18207;DHT22;9229;52.354;20.886;2022-08-23T16:17:37;26.40;94.10
18207;DHT22;9229;52.354;20.886;2022-08-23T16:22:41;26.40;94.70
18207;DHT22;9229;52.354;20.886;2022-08-23T16:27:43;26.30;95.10
18207;DHT22;9229;52.354;20.886;2022-08-23T16:32:46;26.20;95.60
18207;DHT22;9229;52.354;20.886;2022-08-23T16:37:48;26.20;95.80
18207;DHT22;9229;52.354;20.886;2022-08-23T16:42:50;26.20;96.40
18207;DHT22;9229;52.354;20.886;2022-08-23T16:47:54;26.10;96.70
18207;DHT22;9229;52.354;20.886;2022-08-23T16:52:55;26.00;97.00
18207;DHT22;9229;52.354;20.886;2022-08-23T16:57:58;25.90;97.40
18207;DHT22;9229;52.354;20.886;2022-08-23T17:03:02;25.80;97.30
18207;DHT22;9229;52.354;20.886;2022-08-23T17:08:04;25.60;97.70
18207;DHT22;9229;52.354;20.886;2022-08-23T17:13:07;25.60;98.20
18207;DHT22;9229;52.354;20.886;2022-08-23T17:18:10;25.50;98.50
18207;DHT22;9229;52.354;20.886;2022-08-23T17:23:12;25.50;98.90
18207;DHT22;9229;52.354;20.886;2022-08-23T17:28:14;25.50;99.20
18207;DHT22;9229;52.354;20.886;2022-08-23T17:33:18;25.40;99.40
18207;DHT22;9229;52.354;20.886;2022-08-23T17:38:20;25.30;99.60
18207;DHT22;9229;52.354;20.886;2022-08-23T17:43:22;25.20;99.90
18207;DHT22;9229;52.354;20.886;2022-08-23T17:48:25;25.10;99.90
18207;DHT22;9229;52.354;20.886;2022-08-23T17:53:28;25.00;99.90
18207;DHT22;9229;52.354;20.886;2022-08-23T17:58:30;24.90;99.90
18207;DHT22;9229;52.354;20.886;2022-08-23T18:03:33;24.80;99.90
18207;DHT22;9229;52.354;20.886;2022-08-23T18:08:35;24.70;99.90
18207;DHT22;9229;52.354;20.886;2022-08-23T18:13:37;24.70;99.90
18207;DHT22;9229;52.354;20.886;2022-08-23T18:18:40;24.60;99.90
18207;DHT22;9229;52.354;20.886;2022-08-23T18:23:42;24.50;99.90
18207;DHT22;9229;52.354;20.886;2022-08-23T18:28:44;24.40;99.90
18207;DHT22;9229;52.354;20.886;2022-08-23T18:33:50;24.30;99.90
18207;DHT22;9229;52.354;20.886;2022-08-23T18:38:52;24.20;99.90
18207;DHT22;9229;52.354;20.886;2022-08-23T18:43:54;24.10;99.90
18207;DHT22;9229;52.354;20.886;2022-08-23T18:48:59;24.00;99.90
18207;DHT22;9229;52.354;20.886;2022-08-23T18:54:05;23.80;99.90
18207;DHT22;9229;52.354;20.886;2022-08-23T18:59:07;23.70;99.90
18207;DHT22;9229;52.354;20.886;2022-08-23T19:04:11;23.50;99.90
18207;DHT22;9229;52.354;20.886;2022-08-23T19:09:14;23.30;99.90
18207;DHT22;9229;52.354;20.886;2022-08-23T19:14:18;23.20;99.90
18207;DHT22;9229;52.354;20.886;2022-08-23T19:19:24;23.20;99.90
18207;DHT22;9229;52.354;20.886;2022-08-23T19:28:29;22.90;99.90
18207;DHT22;9229;52.354;20.886;2022-08-23T19:33:38;22.80;99.90
18207;DHT22;9229;52.354;20.886;2022-08-23T19:38:45;22.80;99.90
18207;DHT22;9229;52.354;20.886;2022-08-23T19:43:55;22.80;99.90
18207;DHT22;9229;52.354;20.886;2022-08-23T19:49:01;22.60;99.90
18207;DHT22;9229;52.354;20.886;2022-08-23T19:54:07;22.60;99.90
18207;DHT22;9229;52.354;20.886;2022-08-23T19:59:15;22.60;99.90
18207;DHT22;9229;52.354;20.886;2022-08-23T20:04:19;22.50;99.90
18207;DHT22;9229;52.354;20.886;2022-08-23T20:09:21;22.30;99.90
18207;DHT22;9229;52.354;20.886;2022-08-23T20:14:28;22.30;99.90
18207;DHT22;9229;52.354;20.886;2022-08-23T20:19:33;22.20;99.90
18207;DHT22;9229;52.354;20.886;2022-08-23T20:24:37;22.20;99.90
18207;DHT22;9229;52.354;20.886;2022-08-23T20:29:48;22.10;99.90
18207;DHT22;9229;52.354;20.886;2022-08-23T20:34:52;22.00;99.90
18207;DHT22;9229;52.354;20.886;2022-08-23T20:39:56;22.00;99.90
18207;DHT22;9229;52.354;20.886;2022-08-23T20:45:04;21.90;99.90
18207;DHT22;9229;52.354;20.886;2022-08-23T20:50:08;21.90;99.90
18207;DHT22;9229;52.354;20.886;2022-08-23T20:55:11;21.90;99.90
18207;DHT22;9229;52.354;20.886;2022-08-23T21:00:19;21.80;99.90
18207;DHT22;9229;52.354;20.886;2022-08-23T21:05:22;21.70;99.90
18207;DHT22;9229;52.354;20.886;2022-08-23T21:10:26;21.70;99.90
18207;DHT22;9229;52.354;20.886;2022-08-23T21:15:29;21.70;99.90
18207;DHT22;9229;52.354;20.886;2022-08-23T21:20:31;21.60;99.90
18207;DHT22;9229;52.354;20.886;2022-08-23T21:25:33;21.60;99.90
18207;DHT22;9229;52.354;20.886;2022-08-23T21:30:37;21.50;99.90
18207;DHT22;9229;52.354;20.886;2022-08-23T21:35:38;21.40;99.90
18207;DHT22;9229;52.354;20.886;2022-08-23T21:40:40;21.40;99.90
18207;DHT22;9229;52.354;20.886;2022-08-23T21:45:44;21.40;99.90
18207;DHT22;9229;52.354;20.886;2022-08-23T21:50:46;21.20;99.90
18207;DHT22;9229;52.354;20.886;2022-08-23T21:55:48;21.10;99.90
18207;DHT22;9229;52.354;20.886;2022-08-23T22:00:51;21.10;99.90
18207;DHT22;9229;52.354;20.886;2022-08-23T22:05:53;21.10;99.90
18207;DHT22;9229;52.354;20.886;2022-08-23T22:10:55;21.00;99.90
18207;DHT22;9229;52.354;20.886;2022-08-23T22:16:00;21.00;99.90
18207;DHT22;9229;52.354;20.886;2022-08-23T22:21:03;20.90;99.90
18207;DHT22;9229;52.354;20.886;2022-08-23T22:26:05;20.80;99.90
18207;DHT22;9229;52.354;20.886;2022-08-23T22:31:10;20.80;99.90
18207;DHT22;9229;52.354;20.886;2022-08-23T22:36:15;20.70;99.90
18207;DHT22;9229;52.354;20.886;2022-08-23T22:41:19;20.60;99.90
18207;DHT22;9229;52.354;20.886;2022-08-23T22:46:25;20.60;99.90
18207;DHT22;9229;52.354;20.886;2022-08-23T22:51:30;20.50;99.90
18207;DHT22;9229;52.354;20.886;2022-08-23T22:56:39;20.40;99.90
18207;DHT22;9229;52.354;20.886;2022-08-23T23:01:45;20.40;99.90
18207;DHT22;9229;52.354;20.886;2022-08-23T23:06:47;20.30;99.90
18207;DHT22;9229;52.354;20.886;2022-08-23T23:11:49;20.30;99.90
18207;DHT22;9229;52.354;20.886;2022-08-23T23:16:54;20.20;99.90
18207;DHT22;9229;52.354;20.886;2022-08-23T23:21:57;20.20;99.90
18207;DHT22;9229;52.354;20.886;2022-08-23T23:26:59;20.20;99.90
18207;DHT22;9229;52.354;20.886;2022-08-23T23:32:04;20.20;99.90
18207;DHT22;9229;52.354;20.886;2022-08-23T23:37:06;20.10;99.90
18207;DHT22;9229;52.354;20.886;2022-08-23T23:42:07;20.10;99.90
18207;DHT22;9229;52.354;20.886;2022-08-23T23:47:10;20.00;99.90
18207;DHT22;9229;52.354;20.886;2022-08-23T23:52:12;20.00;99.90
18207;DHT22;9229;52.354;20.886;2022-08-23T23:57:14;20.00;99.90
